Time;durP1;ratioP1;P1;durP2;ratioP2;P2;SDS_P1;SDS_P2;PMS_P1;PMS_P2;Temp;Humidity;BMP_temperature;BMP_pressure;BME280_temperature;BME280_humidity;BME280_pressure;Samples;Min_cycle;Max_cycle;Signal;HPM_P1;HPM_P2
2021/12/31 00:01:26;;;;;;;14.60;4.00;;;13.30;85.40;;;;;;5032319;28;20041;-84
2021/12/31 00:03:55;;;;;;;14.32;4.25;;;13.30;85.40;;;;;;5032685;28;20474;-84
2021/12/31 00:06:22;;;;;;;12.77;4.38;;;13.30;85.40;;;;;;5031471;28;20055;-84
2021/12/31 00:08:50;;;;;;;12.70;3.92;;;13.30;85.40;;;;;;5031619;28;20064;-84
2021/12/31 00:11:16;;;;;;;18.73;4.53;;;13.20;85.40;;;;;;5032468;28;20046;-84
2021/12/31 00:13:43;;;;;;;13.73;4.10;;;13.20;85.40;;;;;;5032521;28;20045;-84
2021/12/31 00:16:11;;;;;;;15.13;4.30;;;13.20;85.40;;;;;;5032130;28;20520;-84
2021/12/31 00:18:38;;;;;;;17.08;3.80;;;13.20;85.40;;;;;;5032424;28;20069;-83
2021/12/31 00:21:06;;;;;;;13.65;3.85;;;13.20;85.40;;;;;;5031712;28;20045;-84
2021/12/31 00:23:33;;;;;;;12.40;3.85;;;13.20;85.40;;;;;;5031551;28;20046;-84
2021/12/31 00:26:00;;;;;;;19.67;4.43;;;13.20;85.40;;;;;;5032351;28;20047;-84
2021/12/31 00:28:27;;;;;;;11.90;4.35;;;13.10;85.30;;;;;;5034251;28;20045;-84
2021/12/31 00:30:55;;;;;;;11.45;3.72;;;13.10;85.30;;;;;;5035588;28;20417;-84
2021/12/31 00:33:24;;;;;;;20.58;5.25;;;13.10;85.30;;;;;;5035080;28;20053;-84
2021/12/31 00:35:51;;;;;;;13.32;3.78;;;13.10;85.30;;;;;;5035115;28;20046;-84
2021/12/31 00:38:19;;;;;;;15.40;4.55;;;13.10;85.30;;;;;;5035505;28;20060;-84
2021/12/31 00:40:46;;;;;;;16.35;4.30;;;13.00;85.20;;;;;;5035885;28;20056;-84
2021/12/31 00:43:13;;;;;;;11.25;3.95;;;13.00;85.30;;;;;;5035918;28;20042;-84
2021/12/31 00:45:41;;;;;;;11.05;4.05;;;12.90;85.20;;;;;;5035535;28;20518;-84
2021/12/31 00:48:10;;;;;;;19.20;4.13;;;13.00;85.30;;;;;;5035012;28;20120;-84
2021/12/31 00:50:38;;;;;;;16.63;4.50;;;12.90;85.30;;;;;;5035344;28;20045;-84
2021/12/31 00:53:06;;;;;;;17.20;4.18;;;12.90;85.30;;;;;;5035297;28;20048;-83
2021/12/31 00:55:34;;;;;;;11.93;4.63;;;12.90;85.30;;;;;;5035548;28;20644;-84
2021/12/31 00:58:01;;;;;;;10.35;4.03;;;12.90;85.30;;;;;;5035617;28;20103;-84
2021/12/31 01:00:29;;;;;;;13.70;4.18;;;12.90;85.30;;;;;;5035181;28;20050;-84
2021/12/31 01:02:56;;;;;;;15.25;4.63;;;12.90;85.30;;;;;;5032633;28;20045;-84
2021/12/31 01:05:24;;;;;;;13.52;4.40;;;12.80;85.30;;;;;;5034956;28;20049;-84
2021/12/31 01:07:51;;;;;;;11.15;4.20;;;12.80;85.30;;;;;;5035066;28;20041;-84
2021/12/31 01:10:19;;;;;;;12.75;4.35;;;12.80;85.30;;;;;;5034024;28;20045;-84
2021/12/31 01:12:46;;;;;;;11.23;4.60;;;12.70;85.40;;;;;;5035415;28;20065;-84
2021/12/31 01:15:33;;;;;;;11.82;4.32;;;12.70;85.40;;;;;;5033206;28;20045;-84
2021/12/31 01:20:27;;;;;;;17.70;5.07;;;12.70;85.40;;;;;;5034283;28;20046;-84
2021/12/31 01:22:54;;;;;;;13.90;5.28;;;12.60;85.40;;;;;;5035007;28;20048;-84
2021/12/31 01:25:21;;;;;;;16.40;5.85;;;12.60;85.40;;;;;;5034916;28;20429;-84
2021/12/31 01:27:49;;;;;;;13.00;4.88;;;12.60;85.40;;;;;;5034736;28;20053;-84
2021/12/31 01:30:16;;;;;;;17.52;5.30;;;12.60;85.50;;;;;;5034011;28;20052;-84
2021/12/31 01:32:48;;;;;;;15.20;4.78;;;12.50;85.50;;;;;;5034755;28;20057;-84
2021/12/31 01:35:16;;;;;;;13.15;5.28;;;12.50;85.50;;;;;;5033995;28;20045;-84
2021/12/31 01:37:43;;;;;;;14.35;5.22;;;12.50;85.50;;;;;;5034744;28;20045;-84
2021/12/31 01:40:11;;;;;;;19.02;5.63;;;12.50;85.50;;;;;;5034116;28;20052;-84
2021/12/31 01:42:38;;;;;;;14.70;5.78;;;12.50;85.50;;;;;;5034397;28;20051;-84
2021/12/31 01:45:13;;;;;;;14.10;5.82;;;12.40;85.50;;;;;;5033800;28;20060;-84
2021/12/31 01:48:07;;;;;;;15.60;5.50;;;12.40;85.60;;;;;;5036045;28;20053;-84
2021/12/31 01:50:34;;;;;;;15.15;5.85;;;12.40;85.60;;;;;;5033989;28;20049;-84
2021/12/31 01:53:01;;;;;;;18.92;5.70;;;12.40;85.60;;;;;;5033323;28;20421;-84
2021/12/31 01:55:32;;;;;;;13.68;5.93;;;12.40;85.60;;;;;;5033221;28;20045;-84
2021/12/31 01:58:01;;;;;;;14.32;6.00;;;12.30;85.60;;;;;;5034265;28;20517;-83
2021/12/31 02:00:28;;;;;;;15.68;5.20;;;12.30;85.70;;;;;;5034394;28;20046;-83
2021/12/31 02:02:57;;;;;;;14.15;6.03;;;12.30;85.70;;;;;;5031125;28;20137;-84
2021/12/31 02:05:24;;;;;;;14.20;6.55;;;12.30;85.70;;;;;;5033776;28;20060;-83
2021/12/31 02:07:51;;;;;;;19.55;5.53;;;12.20;85.70;;;;;;5034192;28;20052;-84
2021/12/31 02:10:18;;;;;;;15.80;5.38;;;12.20;85.70;;;;;;5034295;28;20072;-84
2021/12/31 02:12:47;;;;;;;15.73;5.82;;;12.20;85.80;;;;;;5034079;28;20444;-84
2021/12/31 02:15:16;;;;;;;19.77;5.40;;;12.20;85.80;;;;;;5033167;28;20501;-84
2021/12/31 02:17:47;;;;;;;14.10;5.82;;;12.10;85.80;;;;;;5033582;28;20518;-83
2021/12/31 02:20:19;;;;;;;12.18;5.90;;;12.10;85.80;;;;;;5033568;28;20502;-84
2021/12/31 02:22:55;;;;;;;18.98;5.63;;;12.10;85.80;;;;;;5033920;28;20045;-84
2021/12/31 02:25:24;;;;;;;20.08;5.70;;;12.10;85.90;;;;;;5034019;28;20041;-83
2021/12/31 02:27:52;;;;;;;13.10;5.35;;;12.10;85.90;;;;;;5033752;28;20041;-84
2021/12/31 02:30:19;;;;;;;15.63;5.80;;;12.00;85.90;;;;;;5032983;28;20522;-84
2021/12/31 02:32:46;;;;;;;14.57;6.00;;;12.00;85.90;;;;;;5033981;28;20406;-83
2021/12/31 02:35:14;;;;;;;19.02;6.18;;;12.00;85.90;;;;;;5033948;28;20104;-84
2021/12/31 02:37:41;;;;;;;18.73;6.72;;;12.00;86.00;;;;;;5033908;28;20509;-84
2021/12/31 02:40:12;;;;;;;17.80;6.07;;;11.90;86.00;;;;;;5033899;28;20049;-84
2021/12/31 02:42:41;;;;;;;14.32;6.05;;;11.90;86.00;;;;;;5033954;28;20052;-84
2021/12/31 02:45:09;;;;;;;14.90;5.97;;;11.90;86.00;;;;;;5033081;28;20051;-84
2021/12/31 02:47:43;;;;;;;17.17;6.13;;;11.90;86.00;;;;;;5033319;28;20060;-83
2021/12/31 02:50:15;;;;;;;11.55;5.72;;;11.90;86.00;;;;;;5033607;28;20045;-83
2021/12/31 02:52:43;;;;;;;14.52;6.22;;;11.90;86.10;;;;;;5033710;28;20052;-83
2021/12/31 02:55:11;;;;;;;14.57;5.95;;;11.90;86.10;;;;;;5033845;28;20045;-83
2021/12/31 02:57:40;;;;;;;15.73;5.85;;;11.90;86.10;;;;;;5033684;28;20056;-83
2021/12/31 03:00:08;;;;;;;12.85;5.80;;;11.80;86.10;;;;;;5032643;28;20056;-84
2021/12/31 03:02:40;;;;;;;13.00;5.35;;;11.80;86.10;;;;;;5033149;28;20071;-84
2021/12/31 03:05:08;;;;;;;19.02;6.60;;;11.80;86.20;;;;;;5035639;28;20057;-84
2021/12/31 03:07:37;;;;;;;15.88;5.70;;;11.80;86.10;;;;;;5032292;28;20132;-84
2021/12/31 03:10:05;;;;;;;12.75;5.93;;;11.70;86.20;;;;;;5033513;28;20081;-84
2021/12/31 03:12:32;;;;;;;14.90;5.88;;;11.80;86.20;;;;;;5033430;28;20059;-84
2021/12/31 03:14:59;;;;;;;15.13;6.85;;;11.70;86.20;;;;;;5032707;28;20063;-84
2021/12/31 03:17:27;;;;;;;18.67;6.35;;;11.70;86.30;;;;;;5033041;28;20050;-84
2021/12/31 03:20:07;;;;;;;14.45;6.13;;;11.70;86.30;;;;;;5033270;28;20049;-84
2021/12/31 03:22:34;;;;;;;13.65;6.07;;;11.70;86.30;;;;;;5033268;28;20042;-84
2021/12/31 03:25:01;;;;;;;19.52;6.43;;;11.70;86.30;;;;;;5033168;28;20052;-83
2021/12/31 03:27:28;;;;;;;18.25;6.18;;;11.70;86.30;;;;;;5033256;28;20067;-83
2021/12/31 03:29:55;;;;;;;19.70;6.25;;;11.70;86.40;;;;;;5032263;28;20053;-83
2021/12/31 03:32:22;;;;;;;20.13;6.78;;;11.60;86.40;;;;;;5033113;28;20045;-83
2021/12/31 03:34:49;;;;;;;15.07;6.88;;;11.60;86.40;;;;;;5031849;28;20071;-84
2021/12/31 03:37:16;;;;;;;13.80;6.40;;;11.60;86.40;;;;;;5033361;28;20042;-84
2021/12/31 03:39:43;;;;;;;13.75;6.50;;;11.60;86.40;;;;;;5033168;28;20051;-84
2021/12/31 03:42:15;;;;;;;17.52;6.88;;;11.60;86.40;;;;;;5032299;28;20395;-84
2021/12/31 03:44:45;;;;;;;14.50;6.68;;;11.60;86.40;;;;;;5032147;28;20051;-83
2021/12/31 03:47:13;;;;;;;15.52;6.53;;;11.60;86.40;;;;;;5032942;28;20055;-84
2021/12/31 03:49:40;;;;;;;16.10;6.68;;;11.50;86.40;;;;;;5032907;28;20057;-84
2021/12/31 03:52:07;;;;;;;17.42;7.28;;;11.50;86.40;;;;;;5032966;28;20049;-84
2021/12/31 03:54:34;;;;;;;14.73;6.82;;;11.50;86.50;;;;;;5033190;28;20148;-84
2021/12/31 03:57:01;;;;;;;15.90;6.97;;;11.40;86.50;;;;;;5032133;28;20048;-84
2021/12/31 03:59:28;;;;;;;13.50;5.85;;;11.50;86.50;;;;;;5032456;28;20049;-84
2021/12/31 04:01:55;;;;;;;15.02;6.15;;;11.50;86.50;;;;;;5032782;28;20042;-83
2021/12/31 04:04:22;;;;;;;16.65;6.75;;;11.40;86.50;;;;;;5036235;28;20111;-84
2021/12/31 04:06:50;;;;;;;14.52;6.55;;;11.40;86.50;;;;;;5036906;28;20053;-84
2021/12/31 04:09:17;;;;;;;15.88;6.60;;;11.40;86.50;;;;;;5034729;28;20049;-84
2021/12/31 04:11:44;;;;;;;12.48;6.57;;;11.40;86.50;;;;;;5036734;28;20409;-83
2021/12/31 04:14:11;;;;;;;14.55;6.70;;;11.40;86.50;;;;;;5035250;28;20051;-84
2021/12/31 04:16:38;;;;;;;16.20;6.63;;;11.40;86.50;;;;;;5036613;28;20056;-83
2021/12/31 04:19:05;;;;;;;15.23;7.05;;;11.40;86.50;;;;;;5036617;28;20049;-83
2021/12/31 04:21:33;;;;;;;17.08;7.13;;;11.40;86.50;;;;;;5036480;28;20045;-83
2021/12/31 04:24:28;;;;;;;19.95;6.45;;;11.40;86.50;;;;;;5035670;28;20058;-83
2021/12/31 04:26:55;;;;;;;12.27;6.97;;;11.40;86.50;;;;;;5033790;28;20049;-84
2021/12/31 04:29:22;;;;;;;14.45;6.93;;;11.40;86.50;;;;;;5036098;28;20057;-84
2021/12/31 04:31:49;;;;;;;14.00;7.45;;;11.40;86.50;;;;;;5036436;28;20075;-83
2021/12/31 04:34:17;;;;;;;15.00;7.35;;;11.30;86.50;;;;;;5036431;28;20076;-84
2021/12/31 04:36:44;;;;;;;14.25;6.65;;;11.40;86.50;;;;;;5036495;28;20037;-84
2021/12/31 04:39:11;;;;;;;17.85;7.63;;;11.30;86.60;;;;;;5031445;28;20525;-83
2021/12/31 04:41:38;;;;;;;16.88;8.40;;;11.30;86.50;;;;;;5036107;28;20060;-84
2021/12/31 04:44:05;;;;;;;16.70;8.52;;;11.30;86.60;;;;;;5035674;28;20049;-83
2021/12/31 04:46:32;;;;;;;21.30;8.65;;;11.30;86.60;;;;;;5035920;28;20487;-84
2021/12/31 04:48:59;;;;;;;16.52;8.50;;;11.30;86.50;;;;;;5036094;28;20049;-84
2021/12/31 04:51:26;;;;;;;14.63;9.27;;;11.20;86.50;;;;;;5035760;28;20049;-84
2021/12/31 04:53:53;;;;;;;14.80;9.52;;;11.20;86.50;;;;;;5035096;28;20048;-84
2021/12/31 04:56:20;;;;;;;17.08;9.35;;;11.20;86.50;;;;;;5035804;28;20049;-83
2021/12/31 04:58:47;;;;;;;21.20;11.27;;;11.10;86.50;;;;;;5035324;28;20048;-84
2021/12/31 05:01:15;;;;;;;19.52;10.20;;;11.10;86.50;;;;;;5035839;28;20051;-84
2021/12/31 05:03:42;;;;;;;19.00;10.65;;;11.10;86.50;;;;;;5020087;28;20524;-83
2021/12/31 05:06:09;;;;;;;16.33;10.90;;;11.10;86.50;;;;;;5034929;28;20063;-83
2021/12/31 05:08:36;;;;;;;18.90;11.18;;;11.10;86.50;;;;;;5035587;28;20045;-84
2021/12/31 05:11:03;;;;;;;16.48;10.90;;;11.10;86.60;;;;;;5035573;28;20046;-83
2021/12/31 05:13:30;;;;;;;23.40;11.63;;;11.10;86.60;;;;;;5035086;28;20041;-83
2021/12/31 05:16:02;;;;;;;16.55;11.10;;;11.00;86.60;;;;;;5034586;28;20430;-83
2021/12/31 05:18:30;;;;;;;16.88;11.02;;;11.00;86.60;;;;;;5035629;28;20061;-84
2021/12/31 05:20:57;;;;;;;17.25;11.15;;;11.00;86.60;;;;;;5034572;28;20071;-83
2021/12/31 05:23:24;;;;;;;18.52;11.20;;;11.00;86.60;;;;;;5035140;28;20052;-83
2021/12/31 05:25:51;;;;;;;19.48;10.90;;;10.90;86.60;;;;;;5035125;28;20069;-83
2021/12/31 05:28:18;;;;;;;24.65;10.77;;;10.90;86.60;;;;;;5035373;28;20422;-83
2021/12/31 05:30:45;;;;;;;19.05;11.75;;;10.90;86.60;;;;;;5035345;28;20048;-83
2021/12/31 05:33:12;;;;;;;22.63;11.60;;;10.90;86.60;;;;;;5034525;28;20100;-83
2021/12/31 05:35:39;;;;;;;18.88;10.38;;;10.90;86.60;;;;;;5036480;28;20045;-83
2021/12/31 05:38:06;;;;;;;17.38;11.65;;;10.90;86.60;;;;;;5035200;28;20068;-83
2021/12/31 05:40:34;;;;;;;21.02;11.68;;;10.90;86.60;;;;;;5034714;28;20068;-83
2021/12/31 05:43:01;;;;;;;23.55;11.10;;;10.90;86.60;;;;;;5035122;28;20425;-83
2021/12/31 05:45:28;;;;;;;22.05;12.48;;;10.90;86.60;;;;;;5034066;28;20049;-83
2021/12/31 05:48:09;;;;;;;18.98;11.80;;;10.80;86.60;;;;;;5034031;28;20128;-83
2021/12/31 05:50:36;;;;;;;24.30;12.27;;;10.80;86.60;;;;;;5034988;28;20059;-83
2021/12/31 05:53:03;;;;;;;19.30;11.80;;;10.90;86.70;;;;;;5034807;28;20055;-83
2021/12/31 05:55:30;;;;;;;19.58;11.98;;;10.90;86.70;;;;;;5066257;28;20049;-83
2021/12/31 05:57:57;;;;;;;22.77;12.65;;;10.80;86.70;;;;;;5034905;28;20047;-83
2021/12/31 06:00:25;;;;;;;20.65;12.05;;;10.80;86.70;;;;;;5034209;28;20053;-83
2021/12/31 06:02:53;;;;;;;19.08;12.25;;;10.80;86.70;;;;;;5033791;28;20073;-83
2021/12/31 06:05:20;;;;;;;19.13;12.20;;;10.80;86.70;;;;;;5036701;28;20457;-83
2021/12/31 06:07:47;;;;;;;21.60;12.45;;;10.80;86.70;;;;;;5034485;28;20045;-83
2021/12/31 06:10:14;;;;;;;21.67;13.20;;;10.80;86.70;;;;;;5034093;28;20057;-84
2021/12/31 06:12:43;;;;;;;20.08;12.68;;;10.70;86.70;;;;;;5034471;28;20048;-83
2021/12/31 06:15:10;;;;;;;17.95;12.00;;;10.80;86.70;;;;;;5029486;28;20053;-83
2021/12/31 06:17:37;;;;;;;18.63;12.30;;;10.70;86.70;;;;;;5034379;28;20045;-83
2021/12/31 06:20:05;;;;;;;20.45;12.93;;;10.70;86.70;;;;;;5034179;28;20437;-84
2021/12/31 06:22:34;;;;;;;22.30;13.02;;;10.70;86.70;;;;;;5034169;28;20049;-84
2021/12/31 06:25:01;;;;;;;18.48;12.27;;;10.70;86.70;;;;;;5033992;28;20047;-83
2021/12/31 06:27:28;;;;;;;17.92;12.50;;;10.70;86.70;;;;;;5034163;28;20046;-84
2021/12/31 06:29:55;;;;;;;19.63;12.48;;;10.60;86.60;;;;;;5031576;28;20049;-83
2021/12/31 06:32:22;;;;;;;20.60;12.43;;;10.70;86.70;;;;;;5034113;28;20057;-83
2021/12/31 06:34:49;;;;;;;16.67;11.80;;;10.60;86.70;;;;;;5033946;28;20434;-83
2021/12/31 06:37:16;;;;;;;18.92;11.65;;;10.60;86.70;;;;;;5034165;28;20037;-83
2021/12/31 06:39:45;;;;;;;19.67;12.55;;;10.60;86.70;;;;;;5017981;28;20047;-83
2021/12/31 06:42:13;;;;;;;17.85;11.18;;;10.60;86.70;;;;;;5029176;28;20520;-83
2021/12/31 06:44:40;;;;;;;16.83;11.18;;;10.50;86.70;;;;;;5035480;28;20046;-84
2021/12/31 06:47:07;;;;;;;15.82;11.05;;;10.60;86.70;;;;;;5033833;28;20056;-83
2021/12/31 06:49:36;;;;;;;18.98;11.55;;;10.60;86.70;;;;;;5033673;28;20052;-84
2021/12/31 06:52:03;;;;;;;16.73;10.48;;;10.60;86.70;;;;;;5033736;28;20421;-83
2021/12/31 06:54:30;;;;;;;18.20;10.48;;;10.60;86.70;;;;;;5033447;28;20055;-83
2021/12/31 06:56:58;;;;;;;16.13;9.80;;;10.60;86.70;;;;;;5032942;28;20067;-84
2021/12/31 06:59:25;;;;;;;15.55;10.40;;;10.60;86.70;;;;;;5032213;28;20056;-84
2021/12/31 07:01:52;;;;;;;23.23;10.60;;;10.50;86.70;;;;;;5033499;28;20128;-83
2021/12/31 07:04:20;;;;;;;18.40;10.07;;;10.50;86.70;;;;;;5065202;28;20042;-83
2021/12/31 07:06:47;;;;;;;17.05;10.52;;;10.60;86.70;;;;;;5033573;28;20128;-83
2021/12/31 07:09:15;;;;;;;16.13;9.85;;;10.50;86.70;;;;;;5032216;28;20118;-84
2021/12/31 07:11:42;;;;;;;17.60;10.45;;;10.50;86.70;;;;;;5033069;28;20053;-83
2021/12/31 07:14:09;;;;;;;16.75;9.93;;;10.50;86.70;;;;;;5033342;28;20047;-83
2021/12/31 07:16:36;;;;;;;15.60;9.23;;;10.50;86.70;;;;;;5033255;28;20048;-83
2021/12/31 07:19:03;;;;;;;15.40;9.43;;;10.50;86.70;;;;;;5033177;28;20045;-83
2021/12/31 07:21:30;;;;;;;14.27;9.25;;;10.50;86.70;;;;;;5033163;28;20053;-83
2021/12/31 07:23:57;;;;;;;14.40;9.38;;;10.50;86.70;;;;;;5032261;28;20056;-83
2021/12/31 07:26:25;;;;;;;15.35;9.88;;;10.50;86.70;;;;;;5033321;28;20057;-83
2021/12/31 07:28:52;;;;;;;17.20;9.10;;;10.50;86.70;;;;;;5033140;28;20238;-83
2021/12/31 07:31:19;;;;;;;17.05;8.50;;;10.50;86.70;;;;;;5031927;28;20046;-83
2021/12/31 07:33:46;;;;;;;15.50;9.02;;;10.50;86.80;;;;;;5033248;28;20627;-83
2021/12/31 07:36:15;;;;;;;12.95;9.23;;;10.50;86.80;;;;;;5032017;28;20524;-84
2021/12/31 07:38:48;;;;;;;17.00;8.95;;;10.50;86.80;;;;;;5031752;28;20140;-83
2021/12/31 07:41:15;;;;;;;14.35;8.88;;;10.50;86.80;;;;;;5033019;28;20050;-83
2021/12/31 07:43:42;;;;;;;13.60;7.35;;;10.50;86.80;;;;;;5033086;28;20077;-83
2021/12/31 07:46:12;;;;;;;12.07;8.30;;;10.50;86.80;;;;;;5033289;28;20045;-83
2021/12/31 07:48:40;;;;;;;13.00;9.23;;;10.50;86.80;;;;;;5033111;28;20049;-83
2021/12/31 07:51:07;;;;;;;11.07;7.07;;;10.60;86.80;;;;;;5031950;28;20049;-83
2021/12/31 07:53:34;;;;;;;11.55;7.45;;;10.50;86.80;;;;;;5032900;28;20052;-84
2021/12/31 07:56:01;;;;;;;13.15;7.82;;;10.50;86.80;;;;;;5032834;28;20498;-83
2021/12/31 07:58:28;;;;;;;12.18;7.72;;;10.50;86.80;;;;;;5031856;28;20037;-84
2021/12/31 08:00:55;;;;;;;12.20;7.03;;;10.50;86.80;;;;;;5030632;28;20053;-83
2021/12/31 08:03:23;;;;;;;12.45;7.25;;;10.50;86.80;;;;;;5031442;28;20125;-84
2021/12/31 08:05:50;;;;;;;13.38;7.75;;;10.50;86.80;;;;;;5031668;28;20057;-83
2021/12/31 08:08:17;;;;;;;13.38;7.07;;;10.60;86.80;;;;;;5032621;28;20504;-83
2021/12/31 08:10:45;;;;;;;10.85;6.55;;;10.50;86.80;;;;;;5032420;28;20506;-83
2021/12/31 08:13:23;;;;;;;11.05;6.25;;;10.50;86.80;;;;;;5032277;28;20605;-83
2021/12/31 08:15:50;;;;;;;9.65;6.68;;;10.50;86.80;;;;;;5032518;28;20421;-83
2021/12/31 08:18:24;;;;;;;11.73;6.82;;;10.60;86.80;;;;;;5031634;28;20399;-83
2021/12/31 08:20:52;;;;;;;10.27;6.40;;;10.50;86.80;;;;;;5031260;28;20056;-83
2021/12/31 08:23:19;;;;;;;10.60;6.32;;;10.50;86.80;;;;;;5032350;28;20048;-83
2021/12/31 08:25:46;;;;;;;13.90;6.63;;;10.50;86.80;;;;;;5032048;28;20049;-83
2021/12/31 08:28:13;;;;;;;11.48;6.70;;;10.50;86.80;;;;;;5032293;28;20052;-83
2021/12/31 08:30:40;;;;;;;12.32;6.38;;;10.50;86.80;;;;;;5032401;28;20075;-83
2021/12/31 08:33:07;;;;;;;10.85;6.72;;;10.50;86.80;;;;;;5031173;28;20442;-83
2021/12/31 08:35:35;;;;;;;13.27;6.10;;;10.50;86.80;;;;;;5031689;28;20136;-83
2021/12/31 08:38:02;;;;;;;12.95;6.68;;;10.50;86.80;;;;;;5032116;28;20116;-83
2021/12/31 08:40:29;;;;;;;9.77;6.25;;;10.50;86.80;;;;;;5031958;28;20049;-83
2021/12/31 08:42:56;;;;;;;9.32;5.97;;;10.50;86.80;;;;;;5032293;28;20425;-84
2021/12/31 08:45:30;;;;;;;;;;;10.60;86.80;;;;;;5032739;28;20060;-83
2021/12/31 08:47:59;;;;;;;12.10;6.05;;;10.50;86.80;;;;;;5031142;28;19928;-83
2021/12/31 08:50:26;;;;;;;10.90;6.38;;;10.50;86.80;;;;;;5035049;28;20052;-83
2021/12/31 08:52:55;;;;;;;9.30;6.05;;;10.60;86.80;;;;;;5035547;28;20133;-83
2021/12/31 08:55:23;;;;;;;11.07;6.38;;;10.50;86.80;;;;;;5035177;28;20041;-83
2021/12/31 08:57:51;;;;;;;9.35;6.00;;;10.60;86.80;;;;;;5035571;28;20045;-83
2021/12/31 09:00:18;;;;;;;11.02;5.53;;;10.60;86.80;;;;;;5034744;28;20054;-83
2021/12/31 09:02:46;;;;;;;10.77;5.72;;;10.60;86.80;;;;;;5035113;28;20048;-83
2021/12/31 09:05:14;;;;;;;11.65;6.00;;;10.60;86.80;;;;;;5035054;28;20505;-83
2021/12/31 09:07:41;;;;;;;13.30;6.22;;;10.60;86.80;;;;;;5035473;28;20045;-83
2021/12/31 09:10:08;;;;;;;10.93;6.22;;;10.60;86.80;;;;;;5035139;28;20049;-83
2021/12/31 09:12:37;;;;;;;8.80;5.88;;;10.60;86.80;;;;;;5035480;28;20060;-83
2021/12/31 09:15:05;;;;;;;12.15;5.95;;;10.60;86.80;;;;;;5034407;28;20053;-83
2021/12/31 09:17:32;;;;;;;10.90;5.47;;;10.60;86.80;;;;;;5034690;28;20117;-83
2021/12/31 09:19:59;;;;;;;8.70;5.47;;;10.60;86.80;;;;;;5034853;28;20042;-83
2021/12/31 09:22:27;;;;;;;9.95;5.97;;;10.60;86.80;;;;;;5035233;28;20055;-83
2021/12/31 09:24:55;;;;;;;10.30;6.28;;;10.60;86.80;;;;;;5034784;28;20088;-83
2021/12/31 09:27:22;;;;;;;11.40;5.82;;;10.60;86.80;;;;;;5034288;28;20080;-83
2021/12/31 09:29:50;;;;;;;9.70;5.45;;;10.60;86.80;;;;;;5034862;28;20414;-83
2021/12/31 09:32:18;;;;;;;10.27;5.55;;;10.60;86.80;;;;;;5034490;28;20048;-83
2021/12/31 09:34:46;;;;;;;11.65;5.90;;;10.60;86.80;;;;;;5034985;28;20059;-83
2021/12/31 09:37:14;;;;;;;8.00;5.70;;;10.60;86.70;;;;;;5035073;28;20420;-83
2021/12/31 09:39:42;;;;;;;10.88;5.38;;;10.60;86.70;;;;;;5034374;28;20535;-83
2021/12/31 09:42:09;;;;;;;10.40;6.43;;;10.60;86.80;;;;;;5033628;28;20050;-83
2021/12/31 09:44:37;;;;;;;13.70;5.68;;;10.60;86.70;;;;;;5034087;28;20052;-83
2021/12/31 09:47:10;;;;;;;9.52;5.32;;;10.60;86.70;;;;;;5033783;28;20087;-83
2021/12/31 09:49:38;;;;;;;9.00;5.53;;;10.70;86.80;;;;;;5034500;28;20144;-83
2021/12/31 09:52:08;;;;;;;9.23;5.38;;;10.60;86.80;;;;;;5034506;28;20567;-83
2021/12/31 09:54:41;;;;;;;13.30;5.53;;;10.70;86.90;;;;;;5034850;28;20052;-83
2021/12/31 09:57:15;;;;;;;11.07;5.38;;;10.80;87.00;;;;;;5034129;28;20383;-83
2021/12/31 09:59:42;;;;;;;8.18;4.93;;;10.90;87.10;;;;;;5036490;28;20413;-83
2021/12/31 10:02:10;;;;;;;10.38;5.03;;;10.90;87.10;;;;;;5033453;28;20049;-83
2021/12/31 10:04:53;;;;;;;9.25;4.95;;;11.00;87.00;;;;;;5034396;28;20133;-83
2021/12/31 10:07:23;;;;;;;13.03;5.10;;;11.10;86.90;;;;;;5034631;28;20053;-83
2021/12/31 10:10:02;;;;;;;8.52;4.20;;;11.20;86.90;;;;;;5034702;28;20052;-83
2021/12/31 10:12:50;;;;;;;7.75;4.30;;;11.30;86.80;;;;;;5034477;28;20059;-83
2021/12/31 10:15:24;;;;;;;7.38;3.95;;;11.40;86.70;;;;;;5030461;28;20494;-83
2021/12/31 10:17:53;;;;;;;8.17;3.93;;;11.50;86.60;;;;;;5035093;28;20084;-83
2021/12/31 10:20:21;;;;;;;8.77;4.35;;;11.70;86.50;;;;;;5034189;28;20445;-85
2021/12/31 10:22:49;;;;;;;9.05;4.18;;;11.90;86.30;;;;;;5034084;28;20045;-84
2021/12/31 10:25:25;;;;;;;8.07;4.13;;;11.90;86.20;;;;;;5034267;28;20041;-84
2021/12/31 10:28:07;;;;;;;9.98;4.05;;;12.10;86.00;;;;;;5019851;28;20136;-84
2021/12/31 10:30:34;;;;;;;6.15;3.30;;;12.30;85.80;;;;;;5033905;28;20056;-85
2021/12/31 10:33:01;;;;;;;9.93;4.13;;;12.50;85.50;;;;;;5033407;28;20395;-84
2021/12/31 10:35:38;;;;;;;8.23;4.38;;;12.60;85.30;;;;;;5033846;28;20156;-84
2021/12/31 10:38:06;;;;;;;11.13;4.22;;;12.80;85.00;;;;;;5031351;28;20398;-84
2021/12/31 10:40:41;;;;;;;10.10;4.00;;;13.00;84.70;;;;;;5031813;28;20052;-84
2021/12/31 10:43:21;;;;;;;8.98;3.53;;;13.10;84.40;;;;;;5032721;28;20441;-84
2021/12/31 10:46:04;;;;;;;7.93;3.75;;;13.20;84.10;;;;;;5030379;28;20041;-84
2021/12/31 10:48:50;;;;;;;11.93;4.55;;;13.40;83.80;;;;;;5033474;28;20053;-84
2021/12/31 10:51:46;;;;;;;8.50;4.03;;;13.50;83.50;;;;;;5029138;28;20549;-84
2021/12/31 10:54:47;;;;;;;8.70;3.80;;;13.70;83.20;;;;;;5029121;28;20049;-84
2021/12/31 10:57:35;;;;;;;7.75;3.60;;;13.80;82.90;;;;;;5028766;28;20060;-84
2021/12/31 11:00:05;;;;;;;6.43;2.95;;;13.90;82.50;;;;;;5030706;28;20052;-84
2021/12/31 11:02:33;;;;;;;6.57;2.95;;;14.00;82.30;;;;;;5032894;28;20049;-84
2021/12/31 11:05:01;;;;;;;5.85;2.75;;;14.10;82.10;;;;;;5032947;28;20060;-84
2021/12/31 11:07:30;;;;;;;7.68;3.08;;;14.20;81.80;;;;;;5032943;28;20049;-84
2021/12/31 11:09:59;;;;;;;6.60;2.90;;;14.20;81.60;;;;;;5033308;28;20421;-84
2021/12/31 11:12:27;;;;;;;6.18;2.90;;;14.20;81.40;;;;;;5031867;28;20445;-85
2021/12/31 11:14:54;;;;;;;6.45;2.60;;;14.20;81.20;;;;;;5029759;28;20049;-85
2021/12/31 11:17:24;;;;;;;4.90;2.70;;;14.20;81.00;;;;;;5033195;28;20144;-85
2021/12/31 11:19:52;;;;;;;6.72;2.92;;;14.10;80.90;;;;;;5032835;28;20049;-84
2021/12/31 11:22:26;;;;;;;6.20;2.83;;;14.00;80.70;;;;;;5033070;28;20046;-85
2021/12/31 11:24:53;;;;;;;10.60;3.03;;;14.00;80.60;;;;;;5033390;28;20421;-85
2021/12/31 11:27:32;;;;;;;7.53;2.75;;;14.00;80.60;;;;;;5032544;28;20045;-84
2021/12/31 11:30:00;;;;;;;12.10;3.20;;;13.90;80.50;;;;;;5030524;28;20050;-85
2021/12/31 11:33:00;;;;;;;5.15;2.63;;;13.90;80.60;;;;;;5033340;28;20052;-85
2021/12/31 11:35:46;;;;;;;7.13;3.35;;;13.80;80.60;;;;;;5029447;28;20049;-85
2021/12/31 11:38:42;;;;;;;8.25;3.35;;;13.70;80.70;;;;;;5029525;28;20041;-85
2021/12/31 11:41:23;;;;;;;6.85;3.13;;;13.70;80.80;;;;;;5029410;28;20049;-85
2021/12/31 11:44:24;;;;;;;5.78;2.83;;;13.60;80.90;;;;;;5029252;28;20168;-84
2021/12/31 11:47:07;;;;;;;6.18;3.33;;;13.50;81.00;;;;;;4970615;28;20075;-84
2021/12/31 11:49:34;;;;;;;11.00;2.97;;;13.50;81.10;;;;;;4970652;28;20047;-84
2021/12/31 11:52:08;;;;;;;5.28;3.10;;;13.50;81.20;;;;;;4970532;28;20049;-84
2021/12/31 11:54:38;;;;;;;6.38;3.10;;;13.50;81.30;;;;;;4970820;28;20054;-84
2021/12/31 11:57:16;;;;;;;7.00;2.92;;;13.40;81.40;;;;;;4971200;28;20511;-84
2021/12/31 11:59:52;;;;;;;5.55;2.97;;;13.40;81.50;;;;;;4969259;28;20051;-84
2021/12/31 12:02:35;;;;;;;5.47;2.70;;;13.50;81.60;;;;;;4969035;28;20504;-84
2021/12/31 12:05:11;;;;;;;7.15;3.38;;;13.50;81.70;;;;;;4969773;28;20069;-85
2021/12/31 12:07:46;;;;;;;7.57;2.92;;;13.50;81.80;;;;;;4970215;28;20117;-84
2021/12/31 12:10:24;;;;;;;6.07;2.83;;;13.50;81.90;;;;;;4969796;28;20055;-84
2021/12/31 12:12:56;;;;;;;5.60;2.63;;;13.50;81.90;;;;;;4952866;28;20133;-84
2021/12/31 12:15:29;;;;;;;6.18;3.05;;;13.50;81.90;;;;;;4969526;28;20078;-84
2021/12/31 12:17:59;;;;;;;6.40;2.58;;;13.50;81.90;;;;;;4970442;28;20047;-84
2021/12/31 12:20:33;;;;;;;5.63;2.92;;;13.50;81.90;;;;;;4967045;28;20065;-84
2021/12/31 12:23:00;;;;;;;6.50;2.83;;;13.50;81.90;;;;;;5015889;28;20056;-85
2021/12/31 12:25:30;;;;;;;5.93;2.97;;;13.60;81.90;;;;;;5035561;28;20037;-84
2021/12/31 12:28:06;;;;;;;7.00;2.67;;;13.60;81.90;;;;;;5036137;28;20068;-84
2021/12/31 12:30:44;;;;;;;5.88;2.70;;;13.60;81.90;;;;;;5036002;28;20519;-84
2021/12/31 12:35:42;;;;;;;5.45;3.00;;;13.60;81.90;;;;;;5036290;28;20064;-84
2021/12/31 12:38:19;;;;;;;5.05;2.97;;;13.60;81.90;;;;;;5036074;28;20055;-85
2021/12/31 12:41:01;;;;;;;7.53;3.10;;;13.50;81.90;;;;;;5035107;28;20063;-84
2021/12/31 12:43:37;;;;;;;5.88;3.08;;;13.60;81.90;;;;;;5035754;28;20050;-84
2021/12/31 12:46:11;;;;;;;6.78;3.05;;;13.60;81.90;;;;;;5035942;28;20080;-84
2021/12/31 12:48:49;;;;;;;5.93;2.63;;;13.60;81.90;;;;;;5035390;28;20045;-85
2021/12/31 12:51:25;;;;;;;6.82;2.80;;;13.60;81.90;;;;;;5031247;28;20425;-84
2021/12/31 12:53:52;;;;;;;7.97;3.00;;;13.60;82.00;;;;;;5035191;28;20502;-84
2021/12/31 12:56:23;;;;;;;6.68;2.80;;;13.60;82.00;;;;;;5035060;28;20526;-85